sensor_id;sensor_type;location;lat;lon;timestamp;P1;P2;P0
65012;PMS5003;51715;39.432;-77.518;2023-01-08T00:01:08;10;9;
65012;PMS5003;51715;39.432;-77.518;2023-01-08T00:03:37;12;12;
65012;PMS5003;51715;39.432;-77.518;2023-01-08T00:06:07;14;14;
65012;PMS5003;51715;39.432;-77.518;2023-01-08T00:10:07;14;12;
65012;PMS5003;51715;39.432;-77.518;2023-01-08T00:12:36;11;11;
65012;PMS5003;51715;39.432;-77.518;2023-01-08T00:15:05;17;13;
65012;PMS5003;51715;39.432;-77.518;2023-01-08T00:17:35;12;10;
65012;PMS5003;51715;39.432;-77.518;2023-01-08T00:20:03;15;14;
65012;PMS5003;51715;39.432;-77.518;2023-01-08T00:22:32;13;13;
65012;PMS5003;51715;39.432;-77.518;2023-01-08T00:25:00;18;16;
65012;PMS5003;51715;39.432;-77.518;2023-01-08T00:27:29;19;15;
65012;PMS5003;51715;39.432;-77.518;2023-01-08T00:29:58;21;21;
65012;PMS5003;51715;39.432;-77.518;2023-01-08T00:32:27;13;13;
65012;PMS5003;51715;39.432;-77.518;2023-01-08T00:34:57;18;18;
65012;PMS5003;51715;39.432;-77.518;2023-01-08T00:37:26;12;11;
65012;PMS5003;51715;39.432;-77.518;2023-01-08T00:39:54;12;12;
65012;PMS5003;51715;39.432;-77.518;2023-01-08T00:42:23;15;14;
65012;PMS5003;51715;39.432;-77.518;2023-01-08T00:44:51;14;13;
65012;PMS5003;51715;39.432;-77.518;2023-01-08T00:47:19;14;12;
65012;PMS5003;51715;39.432;-77.518;2023-01-08T00:49:47;16;15;
65012;PMS5003;51715;39.432;-77.518;2023-01-08T00:52:16;14;14;
65012;PMS5003;51715;39.432;-77.518;2023-01-08T00:54:44;14;13;
65012;PMS5003;51715;39.432;-77.518;2023-01-08T00:57:12;17;15;
65012;PMS5003;51715;39.432;-77.518;2023-01-08T00:59:42;16;14;
65012;PMS5003;51715;39.432;-77.518;2023-01-08T01:02:10;21;18;
65012;PMS5003;51715;39.432;-77.518;2023-01-08T01:04:38;16;14;
65012;PMS5003;51715;39.432;-77.518;2023-01-08T01:07:07;15;12;
65012;PMS5003;51715;39.432;-77.518;2023-01-08T01:09:35;14;12;
65012;PMS5003;51715;39.432;-77.518;2023-01-08T01:12:07;15;15;
65012;PMS5003;51715;39.432;-77.518;2023-01-08T01:14:36;14;12;
65012;PMS5003;51715;39.432;-77.518;2023-01-08T01:17:04;18;16;
65012;PMS5003;51715;39.432;-77.518;2023-01-08T01:19:33;17;15;
65012;PMS5003;51715;39.432;-77.518;2023-01-08T01:22:02;14;13;
65012;PMS5003;51715;39.432;-77.518;2023-01-08T01:24:30;13;13;
65012;PMS5003;51715;39.432;-77.518;2023-01-08T01:27:07;15;15;
65012;PMS5003;51715;39.432;-77.518;2023-01-08T01:29:36;16;14;
65012;PMS5003;51715;39.432;-77.518;2023-01-08T01:32:06;20;18;
65012;PMS5003;51715;39.432;-77.518;2023-01-08T01:34:37;15;14;
65012;PMS5003;51715;39.432;-77.518;2023-01-08T01:37:06;23;20;
65012;PMS5003;51715;39.432;-77.518;2023-01-08T01:39:35;19;16;
65012;PMS5003;51715;39.432;-77.518;2023-01-08T01:42:14;18;15;
65012;PMS5003;51715;39.432;-77.518;2023-01-08T01:44:45;14;13;
65012;PMS5003;51715;39.432;-77.518;2023-01-08T01:47:19;14;14;
65012;PMS5003;51715;39.432;-77.518;2023-01-08T01:49:53;19;17;
65012;PMS5003;51715;39.432;-77.518;2023-01-08T01:52:26;19;18;
65012;PMS5003;51715;39.432;-77.518;2023-01-08T01:55:00;18;14;
65012;PMS5003;51715;39.432;-77.518;2023-01-08T01:57:29;15;13;
65012;PMS5003;51715;39.432;-77.518;2023-01-08T01:59:59;14;13;
65012;PMS5003;51715;39.432;-77.518;2023-01-08T02:02:30;13;12;
65012;PMS5003;51715;39.432;-77.518;2023-01-08T02:04:59;15;14;
65012;PMS5003;51715;39.432;-77.518;2023-01-08T02:07:30;17;15;
65012;PMS5003;51715;39.432;-77.518;2023-01-08T02:10:08;19;18;
65012;PMS5003;51715;39.432;-77.518;2023-01-08T02:12:41;16;16;
65012;PMS5003;51715;39.432;-77.518;2023-01-08T02:15:13;12;12;
65012;PMS5003;51715;39.432;-77.518;2023-01-08T02:17:50;21;18;
65012;PMS5003;51715;39.432;-77.518;2023-01-08T02:20:23;18;17;
65012;PMS5003;51715;39.432;-77.518;2023-01-08T02:23:13;16;16;
65012;PMS5003;51715;39.432;-77.518;2023-01-08T02:25:57;17;15;
65012;PMS5003;51715;39.432;-77.518;2023-01-08T02:28:37;16;16;
65012;PMS5003;51715;39.432;-77.518;2023-01-08T02:31:08;19;17;
65012;PMS5003;51715;39.432;-77.518;2023-01-08T02:33:38;17;15;
65012;PMS5003;51715;39.432;-77.518;2023-01-08T02:36:14;17;15;
65012;PMS5003;51715;39.432;-77.518;2023-01-08T02:38:52;17;16;
65012;PMS5003;51715;39.432;-77.518;2023-01-08T05:04:09;18;16;
65012;PMS5003;51715;39.432;-77.518;2023-01-08T05:06:39;13;13;
65012;PMS5003;51715;39.432;-77.518;2023-01-08T05:09:07;15;15;
65012;PMS5003;51715;39.432;-77.518;2023-01-08T05:11:36;15;14;
65012;PMS5003;51715;39.432;-77.518;2023-01-08T05:14:05;18;13;
65012;PMS5003;51715;39.432;-77.518;2023-01-08T05:16:34;15;13;
65012;PMS5003;51715;39.432;-77.518;2023-01-08T05:19:02;13;13;
65012;PMS5003;51715;39.432;-77.518;2023-01-08T05:21:30;13;13;
65012;PMS5003;51715;39.432;-77.518;2023-01-08T05:23:58;19;16;
65012;PMS5003;51715;39.432;-77.518;2023-01-08T05:26:26;14;10;
65012;PMS5003;51715;39.432;-77.518;2023-01-08T05:28:55;19;19;
65012;PMS5003;51715;39.432;-77.518;2023-01-08T05:31:24;14;13;
65012;PMS5003;51715;39.432;-77.518;2023-01-08T05:33:52;14;14;
65012;PMS5003;51715;39.432;-77.518;2023-01-08T05:36:23;14;11;
65012;PMS5003;51715;39.432;-77.518;2023-01-08T05:38:51;19;13;
65012;PMS5003;51715;39.432;-77.518;2023-01-08T05:41:21;13;13;
65012;PMS5003;51715;39.432;-77.518;2023-01-08T05:47:35;18;14;
65012;PMS5003;51715;39.432;-77.518;2023-01-08T05:50:04;21;15;
65012;PMS5003;51715;39.432;-77.518;2023-01-08T05:52:34;14;13;
65012;PMS5003;51715;39.432;-77.518;2023-01-08T05:55:03;23;22;
65012;PMS5003;51715;39.432;-77.518;2023-01-08T05:57:31;14;14;
65012;PMS5003;51715;39.432;-77.518;2023-01-08T05:59:59;16;15;
65012;PMS5003;51715;39.432;-77.518;2023-01-08T06:02:28;17;17;
65012;PMS5003;51715;39.432;-77.518;2023-01-08T06:04:56;18;16;
65012;PMS5003;51715;39.432;-77.518;2023-01-08T06:07:25;14;11;
65012;PMS5003;51715;39.432;-77.518;2023-01-08T06:09:55;15;13;
65012;PMS5003;51715;39.432;-77.518;2023-01-08T06:12:23;11;10;
65012;PMS5003;51715;39.432;-77.518;2023-01-08T06:14:51;20;17;
65012;PMS5003;51715;39.432;-77.518;2023-01-08T06:17:20;18;18;
65012;PMS5003;51715;39.432;-77.518;2023-01-08T06:19:48;15;12;
65012;PMS5003;51715;39.432;-77.518;2023-01-08T06:22:17;20;16;
65012;PMS5003;51715;39.432;-77.518;2023-01-08T06:24:45;17;16;
65012;PMS5003;51715;39.432;-77.518;2023-01-08T06:27:15;16;16;
65012;PMS5003;51715;39.432;-77.518;2023-01-08T06:29:43;22;17;
65012;PMS5003;51715;39.432;-77.518;2023-01-08T06:32:11;17;15;
65012;PMS5003;51715;39.432;-77.518;2023-01-08T06:34:39;15;14;
65012;PMS5003;51715;39.432;-77.518;2023-01-08T06:37:08;16;14;
65012;PMS5003;51715;39.432;-77.518;2023-01-08T06:39:36;12;12;
65012;PMS5003;51715;39.432;-77.518;2023-01-08T06:42:06;19;15;
65012;PMS5003;51715;39.432;-77.518;2023-01-08T06:44:34;22;18;
65012;PMS5003;51715;39.432;-77.518;2023-01-08T06:47:04;27;24;
65012;PMS5003;51715;39.432;-77.518;2023-01-08T06:49:33;25;21;
65012;PMS5003;51715;39.432;-77.518;2023-01-08T06:52:02;31;28;
65012;PMS5003;51715;39.432;-77.518;2023-01-08T06:54:30;35;31;
65012;PMS5003;51715;39.432;-77.518;2023-01-08T06:56:58;38;30;
65012;PMS5003;51715;39.432;-77.518;2023-01-08T06:59:26;28;26;
65012;PMS5003;51715;39.432;-77.518;2023-01-08T07:01:55;32;28;
65012;PMS5003;51715;39.432;-77.518;2023-01-08T07:04:23;44;36;
65012;PMS5003;51715;39.432;-77.518;2023-01-08T07:06:51;35;32;
65012;PMS5003;51715;39.432;-77.518;2023-01-08T07:09:20;37;32;
65012;PMS5003;51715;39.432;-77.518;2023-01-08T07:11:48;38;36;
65012;PMS5003;51715;39.432;-77.518;2023-01-08T07:14:17;34;28;
65012;PMS5003;51715;39.432;-77.518;2023-01-08T07:16:44;27;25;
65012;PMS5003;51715;39.432;-77.518;2023-01-08T07:19:17;26;23;
65012;PMS5003;51715;39.432;-77.518;2023-01-08T07:21:46;24;24;
65012;PMS5003;51715;39.432;-77.518;2023-01-08T07:24:14;28;27;
65012;PMS5003;51715;39.432;-77.518;2023-01-08T07:26:42;30;27;
65012;PMS5003;51715;39.432;-77.518;2023-01-08T07:29:10;41;30;
65012;PMS5003;51715;39.432;-77.518;2023-01-08T07:31:39;35;31;
65012;PMS5003;51715;39.432;-77.518;2023-01-08T07:34:13;34;28;
65012;PMS5003;51715;39.432;-77.518;2023-01-08T07:36:42;28;27;
65012;PMS5003;51715;39.432;-77.518;2023-01-08T07:39:10;26;21;
65012;PMS5003;51715;39.432;-77.518;2023-01-08T07:41:39;35;29;
65012;PMS5003;51715;39.432;-77.518;2023-01-08T07:44:07;30;24;
65012;PMS5003;51715;39.432;-77.518;2023-01-08T07:46:36;31;28;
65012;PMS5003;51715;39.432;-77.518;2023-01-08T07:49:03;37;32;
65012;PMS5003;51715;39.432;-77.518;2023-01-08T07:51:33;28;26;
65012;PMS5003;51715;39.432;-77.518;2023-01-08T07:54:01;37;33;
65012;PMS5003;51715;39.432;-77.518;2023-01-08T07:56:30;79;61;
65012;PMS5003;51715;39.432;-77.518;2023-01-08T07:58:59;80;66;
65012;PMS5003;51715;39.432;-77.518;2023-01-08T08:01:28;75;62;
65012;PMS5003;51715;39.432;-77.518;2023-01-08T08:03:56;57;43;
65012;PMS5003;51715;39.432;-77.518;2023-01-08T08:06:23;65;47;
65012;PMS5003;51715;39.432;-77.518;2023-01-08T08:08:52;45;41;
65012;PMS5003;51715;39.432;-77.518;2023-01-08T08:11:20;46;42;
65012;PMS5003;51715;39.432;-77.518;2023-01-08T08:13:48;48;41;
65012;PMS5003;51715;39.432;-77.518;2023-01-08T08:16:16;58;47;
65012;PMS5003;51715;39.432;-77.518;2023-01-08T08:18:44;52;40;
65012;PMS5003;51715;39.432;-77.518;2023-01-08T08:21:13;42;34;
65012;PMS5003;51715;39.432;-77.518;2023-01-08T08:23:42;35;30;
65012;PMS5003;51715;39.432;-77.518;2023-01-08T08:26:11;38;29;
65012;PMS5003;51715;39.432;-77.518;2023-01-08T08:28:38;42;37;
65012;PMS5003;51715;39.432;-77.518;2023-01-08T08:31:07;38;31;
65012;PMS5003;51715;39.432;-77.518;2023-01-08T08:33:35;30;26;
65012;PMS5003;51715;39.432;-77.518;2023-01-08T08:36:04;39;31;
65012;PMS5003;51715;39.432;-77.518;2023-01-08T08:38:40;32;27;
65012;PMS5003;51715;39.432;-77.518;2023-01-08T08:41:09;33;26;
65012;PMS5003;51715;39.432;-77.518;2023-01-08T08:43:37;32;25;
65012;PMS5003;51715;39.432;-77.518;2023-01-08T08:46:06;32;28;
65012;PMS5003;51715;39.432;-77.518;2023-01-08T08:48:34;26;25;
65012;PMS5003;51715;39.432;-77.518;2023-01-08T08:51:02;32;29;
65012;PMS5003;51715;39.432;-77.518;2023-01-08T08:53:31;29;26;
65012;PMS5003;51715;39.432;-77.518;2023-01-08T08:55:59;31;24;
65012;PMS5003;51715;39.432;-77.518;2023-01-08T08:58:27;27;25;
65012;PMS5003;51715;39.432;-77.518;2023-01-08T09:00:59;32;27;
65012;PMS5003;51715;39.432;-77.518;2023-01-08T09:03:27;30;29;
65012;PMS5003;51715;39.432;-77.518;2023-01-08T09:05:56;32;26;
65012;PMS5003;51715;39.432;-77.518;2023-01-08T09:08:25;27;25;
65012;PMS5003;51715;39.432;-77.518;2023-01-08T09:10:54;19;16;
65012;PMS5003;51715;39.432;-77.518;2023-01-08T09:13:22;23;19;
65012;PMS5003;51715;39.432;-77.518;2023-01-08T09:15:50;28;25;
65012;PMS5003;51715;39.432;-77.518;2023-01-08T09:18:19;24;21;
65012;PMS5003;51715;39.432;-77.518;2023-01-08T09:20:47;21;18;
65012;PMS5003;51715;39.432;-77.518;2023-01-08T09:23:15;24;24;
65012;PMS5003;51715;39.432;-77.518;2023-01-08T09:25:43;27;21;
65012;PMS5003;51715;39.432;-77.518;2023-01-08T09:28:11;19;19;
65012;PMS5003;51715;39.432;-77.518;2023-01-08T09:30:40;23;20;
65012;PMS5003;51715;39.432;-77.518;2023-01-08T09:33:08;26;21;
65012;PMS5003;51715;39.432;-77.518;2023-01-08T09:35:37;24;21;
65012;PMS5003;51715;39.432;-77.518;2023-01-08T09:38:07;26;23;
65012;PMS5003;51715;39.432;-77.518;2023-01-08T09:40:36;26;23;
65012;PMS5003;51715;39.432;-77.518;2023-01-08T09:43:12;22;19;
65012;PMS5003;51715;39.432;-77.518;2023-01-08T09:45:44;23;22;
65012;PMS5003;51715;39.432;-77.518;2023-01-08T09:48:16;25;25;
65012;PMS5003;51715;39.432;-77.518;2023-01-08T09:50:47;23;19;
65012;PMS5003;51715;39.432;-77.518;2023-01-08T09:53:16;22;22;
65012;PMS5003;51715;39.432;-77.518;2023-01-08T09:55:47;22;21;
65012;PMS5003;51715;39.432;-77.518;2023-01-08T09:58:22;26;23;
65012;PMS5003;51715;39.432;-77.518;2023-01-08T10:00:59;22;20;
65012;PMS5003;51715;39.432;-77.518;2023-01-08T10:03:30;24;20;
65012;PMS5003;51715;39.432;-77.518;2023-01-08T10:06:08;23;22;
65012;PMS5003;51715;39.432;-77.518;2023-01-08T10:08:37;26;21;
65012;PMS5003;51715;39.432;-77.518;2023-01-08T10:11:06;25;23;
65012;PMS5003;51715;39.432;-77.518;2023-01-08T10:13:36;23;19;
65012;PMS5003;51715;39.432;-77.518;2023-01-08T10:16:07;21;18;
65012;PMS5003;51715;39.432;-77.518;2023-01-08T10:18:40;18;15;
65012;PMS5003;51715;39.432;-77.518;2023-01-08T10:21:10;22;19;
65012;PMS5003;51715;39.432;-77.518;2023-01-08T10:23:47;22;19;
65012;PMS5003;51715;39.432;-77.518;2023-01-08T10:26:25;23;21;
65012;PMS5003;51715;39.432;-77.518;2023-01-08T10:29:27;22;22;
65012;PMS5003;51715;39.432;-77.518;2023-01-08T10:31:56;25;20;
65012;PMS5003;51715;39.432;-77.518;2023-01-08T10:34:26;19;17;
65012;PMS5003;51715;39.432;-77.518;2023-01-08T10:36:57;21;19;
65012;PMS5003;51715;39.432;-77.518;2023-01-08T10:39:26;21;21;
65012;PMS5003;51715;39.432;-77.518;2023-01-08T10:41:56;24;24;
65012;PMS5003;51715;39.432;-77.518;2023-01-08T10:44:31;30;26;
65012;PMS5003;51715;39.432;-77.518;2023-01-08T10:46:59;23;21;
65012;PMS5003;51715;39.432;-77.518;2023-01-08T10:49:31;31;29;
65012;PMS5003;51715;39.432;-77.518;2023-01-08T10:52:03;41;35;
65012;PMS5003;51715;39.432;-77.518;2023-01-08T10:54:33;34;31;
65012;PMS5003;51715;39.432;-77.518;2023-01-08T10:57:17;37;33;
65012;PMS5003;51715;39.432;-77.518;2023-01-08T10:59:47;38;34;
65012;PMS5003;51715;39.432;-77.518;2023-01-08T11:02:18;36;32;
65012;PMS5003;51715;39.432;-77.518;2023-01-08T11:04:55;40;29;
65012;PMS5003;51715;39.432;-77.518;2023-01-08T11:07:25;39;36;
65012;PMS5003;51715;39.432;-77.518;2023-01-08T11:09:53;37;36;
65012;PMS5003;51715;39.432;-77.518;2023-01-08T11:12:27;39;34;
65012;PMS5003;51715;39.432;-77.518;2023-01-08T11:15:00;28;20;
65012;PMS5003;51715;39.432;-77.518;2023-01-08T11:17:29;29;24;
65012;PMS5003;51715;39.432;-77.518;2023-01-08T11:20:19;23;20;
65012;PMS5003;51715;39.432;-77.518;2023-01-08T11:22:49;23;16;
65012;PMS5003;51715;39.432;-77.518;2023-01-08T11:25:19;22;17;
65012;PMS5003;51715;39.432;-77.518;2023-01-08T11:27:56;19;17;
65012;PMS5003;51715;39.432;-77.518;2023-01-08T11:30:28;17;15;
65012;PMS5003;51715;39.432;-77.518;2023-01-08T11:33:01;22;19;
65012;PMS5003;51715;39.432;-77.518;2023-01-08T11:35:36;16;16;
65012;PMS5003;51715;39.432;-77.518;2023-01-08T11:38:14;21;18;
65012;PMS5003;51715;39.432;-77.518;2023-01-08T11:40:45;20;17;
65012;PMS5003;51715;39.432;-77.518;2023-01-08T11:43:22;14;13;
65012;PMS5003;51715;39.432;-77.518;2023-01-08T11:46:05;20;17;
65012;PMS5003;51715;39.432;-77.518;2023-01-08T11:48:46;15;13;
65012;PMS5003;51715;39.432;-77.518;2023-01-08T11:51:28;16;12;
65012;PMS5003;51715;39.432;-77.518;2023-01-08T11:54:14;18;18;
65012;PMS5003;51715;39.432;-77.518;2023-01-08T11:56:56;22;19;
65012;PMS5003;51715;39.432;-77.518;2023-01-08T11:59:44;22;19;
65012;PMS5003;51715;39.432;-77.518;2023-01-08T12:02:25;25;20;
65012;PMS5003;51715;39.432;-77.518;2023-01-08T12:05:29;21;18;
65012;PMS5003;51715;39.432;-77.518;2023-01-08T12:08:02;22;19;
65012;PMS5003;51715;39.432;-77.518;2023-01-08T12:10:36;24;24;
65012;PMS5003;51715;39.432;-77.518;2023-01-08T12:13:16;24;23;
65012;PMS5003;51715;39.432;-77.518;2023-01-08T12:15:57;35;32;
65012;PMS5003;51715;39.432;-77.518;2023-01-08T12:18:39;47;44;
65012;PMS5003;51715;39.432;-77.518;2023-01-08T12:21:16;41;39;
65012;PMS5003;51715;39.432;-77.518;2023-01-08T12:23:57;48;44;
65012;PMS5003;51715;39.432;-77.518;2023-01-08T12:26:36;43;37;
65012;PMS5003;51715;39.432;-77.518;2023-01-08T12:29:23;45;41;
65012;PMS5003;51715;39.432;-77.518;2023-01-08T12:32:08;35;29;
65012;PMS5003;51715;39.432;-77.518;2023-01-08T12:34:50;45;37;
65012;PMS5003;51715;39.432;-77.518;2023-01-08T12:37:25;30;27;
65012;PMS5003;51715;39.432;-77.518;2023-01-08T12:40:00;22;21;
65012;PMS5003;51715;39.432;-77.518;2023-01-08T12:42:34;71;68;
65012;PMS5003;51715;39.432;-77.518;2023-01-08T12:45:11;55;51;
65012;PMS5003;51715;39.432;-77.518;2023-01-08T12:47:43;42;40;
65012;PMS5003;51715;39.432;-77.518;2023-01-08T12:50:20;43;38;
65012;PMS5003;51715;39.432;-77.518;2023-01-08T12:52:58;22;20;
65012;PMS5003;51715;39.432;-77.518;2023-01-08T12:55:42;26;23;
65012;PMS5003;51715;39.432;-77.518;2023-01-08T12:58:24;19;17;
65012;PMS5003;51715;39.432;-77.518;2023-01-08T13:01:03;28;25;
65012;PMS5003;51715;39.432;-77.518;2023-01-08T13:03:43;22;20;
65012;PMS5003;51715;39.432;-77.518;2023-01-08T13:06:13;29;23;
65012;PMS5003;51715;39.432;-77.518;2023-01-08T13:08:45;37;32;
65012;PMS5003;51715;39.432;-77.518;2023-01-08T13:11:24;33;30;
65012;PMS5003;51715;39.432;-77.518;2023-01-08T13:13:58;34;28;
65012;PMS5003;51715;39.432;-77.518;2023-01-08T13:16:29;34;28;
65012;PMS5003;51715;39.432;-77.518;2023-01-08T13:19:00;33;30;
65012;PMS5003;51715;39.432;-77.518;2023-01-08T13:21:32;33;28;
65012;PMS5003;51715;39.432;-77.518;2023-01-08T13:24:05;28;28;
65012;PMS5003;51715;39.432;-77.518;2023-01-08T13:26:51;28;27;
65012;PMS5003;51715;39.432;-77.518;2023-01-08T13:29:24;38;36;
65012;PMS5003;51715;39.432;-77.518;2023-01-08T13:32:03;39;36;
65012;PMS5003;51715;39.432;-77.518;2023-01-08T13:34:48;42;38;
65012;PMS5003;51715;39.432;-77.518;2023-01-08T13:37:28;31;30;
65012;PMS5003;51715;39.432;-77.518;2023-01-08T13:39:57;28;24;
65012;PMS5003;51715;39.432;-77.518;2023-01-08T13:42:25;24;21;
65012;PMS5003;51715;39.432;-77.518;2023-01-08T13:44:58;25;19;
65012;PMS5003;51715;39.432;-77.518;2023-01-08T13:47:30;32;27;
65012;PMS5003;51715;39.432;-77.518;2023-01-08T13:50:02;31;27;
65012;PMS5003;51715;39.432;-77.518;2023-01-08T13:52:41;26;24;
65012;PMS5003;51715;39.432;-77.518;2023-01-08T13:55:13;34;29;
65012;PMS5003;51715;39.432;-77.518;2023-01-08T13:57:45;39;33;
65012;PMS5003;51715;39.432;-77.518;2023-01-08T14:00:18;38;32;
65012;PMS5003;51715;39.432;-77.518;2023-01-08T14:02:50;50;41;
65012;PMS5003;51715;39.432;-77.518;2023-01-08T14:05:21;51;48;
65012;PMS5003;51715;39.432;-77.518;2023-01-08T14:07:51;46;38;
65012;PMS5003;51715;39.432;-77.518;2023-01-08T14:10:20;32;31;
65012;PMS5003;51715;39.432;-77.518;2023-01-08T14:12:49;26;23;
65012;PMS5003;51715;39.432;-77.518;2023-01-08T14:15:20;20;20;
65012;PMS5003;51715;39.432;-77.518;2023-01-08T14:17:51;31;29;
65012;PMS5003;51715;39.432;-77.518;2023-01-08T14:20:25;26;25;
65012;PMS5003;51715;39.432;-77.518;2023-01-08T14:22:57;25;22;
65012;PMS5003;51715;39.432;-77.518;2023-01-08T14:25:27;22;20;
65012;PMS5003;51715;39.432;-77.518;2023-01-08T14:27:58;20;15;
65012;PMS5003;51715;39.432;-77.518;2023-01-08T14:30:29;26;24;
65012;PMS5003;51715;39.432;-77.518;2023-01-08T14:32:59;22;21;
65012;PMS5003;51715;39.432;-77.518;2023-01-08T14:35:28;25;22;
65012;PMS5003;51715;39.432;-77.518;2023-01-08T14:38:00;19;16;
65012;PMS5003;51715;39.432;-77.518;2023-01-08T14:40:31;23;21;
65012;PMS5003;51715;39.432;-77.518;2023-01-08T14:43:05;22;18;
65012;PMS5003;51715;39.432;-77.518;2023-01-08T14:45:45;35;28;
65012;PMS5003;51715;39.432;-77.518;2023-01-08T14:48:17;20;20;
65012;PMS5003;51715;39.432;-77.518;2023-01-08T14:50:55;27;22;
65012;PMS5003;51715;39.432;-77.518;2023-01-08T14:53:30;26;25;
65012;PMS5003;51715;39.432;-77.518;2023-01-08T14:56:00;22;19;
65012;PMS5003;51715;39.432;-77.518;2023-01-08T14:58:33;25;24;
65012;PMS5003;51715;39.432;-77.518;2023-01-08T15:01:06;22;22;
65012;PMS5003;51715;39.432;-77.518;2023-01-08T15:03:40;24;22;
65012;PMS5003;51715;39.432;-77.518;2023-01-08T15:06:10;26;23;
65012;PMS5003;51715;39.432;-77.518;2023-01-08T15:08:49;20;19;
65012;PMS5003;51715;39.432;-77.518;2023-01-08T15:11:20;17;15;
65012;PMS5003;51715;39.432;-77.518;2023-01-08T15:13:51;20;19;
65012;PMS5003;51715;39.432;-77.518;2023-01-08T15:16:22;19;17;
65012;PMS5003;51715;39.432;-77.518;2023-01-08T15:19:00;19;17;
65012;PMS5003;51715;39.432;-77.518;2023-01-08T15:21:33;17;16;
65012;PMS5003;51715;39.432;-77.518;2023-01-08T15:24:02;22;20;
65012;PMS5003;51715;39.432;-77.518;2023-01-08T15:26:33;16;16;
65012;PMS5003;51715;39.432;-77.518;2023-01-08T15:29:07;21;19;
65012;PMS5003;51715;39.432;-77.518;2023-01-08T15:31:45;18;15;
65012;PMS5003;51715;39.432;-77.518;2023-01-08T15:34:15;19;16;
65012;PMS5003;51715;39.432;-77.518;2023-01-08T15:36:46;19;18;
65012;PMS5003;51715;39.432;-77.518;2023-01-08T15:39:15;16;14;
65012;PMS5003;51715;39.432;-77.518;2023-01-08T15:41:43;15;15;
65012;PMS5003;51715;39.432;-77.518;2023-01-08T15:44:12;18;16;
65012;PMS5003;51715;39.432;-77.518;2023-01-08T15:46:42;20;16;
65012;PMS5003;51715;39.432;-77.518;2023-01-08T15:49:10;10;10;
65012;PMS5003;51715;39.432;-77.518;2023-01-08T15:51:39;16;15;
65012;PMS5003;51715;39.432;-77.518;2023-01-08T15:54:10;16;14;
65012;PMS5003;51715;39.432;-77.518;2023-01-08T15:56:41;18;18;
65012;PMS5003;51715;39.432;-77.518;2023-01-08T15:59:14;17;17;
65012;PMS5003;51715;39.432;-77.518;2023-01-08T16:01:43;14;14;
65012;PMS5003;51715;39.432;-77.518;2023-01-08T16:04:11;15;15;
65012;PMS5003;51715;39.432;-77.518;2023-01-08T16:06:39;14;13;
65012;PMS5003;51715;39.432;-77.518;2023-01-08T16:09:08;11;11;
65012;PMS5003;51715;39.432;-77.518;2023-01-08T16:11:36;12;11;
65012;PMS5003;51715;39.432;-77.518;2023-01-08T16:14:04;16;16;
65012;PMS5003;51715;39.432;-77.518;2023-01-08T16:16:33;16;13;
65012;PMS5003;51715;39.432;-77.518;2023-01-08T16:19:01;16;16;
65012;PMS5003;51715;39.432;-77.518;2023-01-08T16:21:30;14;14;
65012;PMS5003;51715;39.432;-77.518;2023-01-08T16:23:59;10;9;
65012;PMS5003;51715;39.432;-77.518;2023-01-08T16:26:27;10;9;
65012;PMS5003;51715;39.432;-77.518;2023-01-08T16:28:55;11;11;
65012;PMS5003;51715;39.432;-77.518;2023-01-08T16:31:23;11;11;
65012;PMS5003;51715;39.432;-77.518;2023-01-08T16:33:51;15;14;
65012;PMS5003;51715;39.432;-77.518;2023-01-08T16:36:20;15;14;
65012;PMS5003;51715;39.432;-77.518;2023-01-08T16:38:48;17;16;
65012;PMS5003;51715;39.432;-77.518;2023-01-08T16:41:18;17;14;
65012;PMS5003;51715;39.432;-77.518;2023-01-08T16:43:46;18;14;
65012;PMS5003;51715;39.432;-77.518;2023-01-08T16:46:15;12;11;
65012;PMS5003;51715;39.432;-77.518;2023-01-08T16:48:43;16;14;
65012;PMS5003;51715;39.432;-77.518;2023-01-08T16:51:12;14;14;
65012;PMS5003;51715;39.432;-77.518;2023-01-08T16:53:41;14;12;
65012;PMS5003;51715;39.432;-77.518;2023-01-08T16:56:10;14;12;
65012;PMS5003;51715;39.432;-77.518;2023-01-08T16:58:38;18;17;
65012;PMS5003;51715;39.432;-77.518;2023-01-08T17:01:07;12;11;
65012;PMS5003;51715;39.432;-77.518;2023-01-08T17:03:37;18;18;
65012;PMS5003;51715;39.432;-77.518;2023-01-08T17:06:07;14;11;
65012;PMS5003;51715;39.432;-77.518;2023-01-08T17:08:36;17;17;
65012;PMS5003;51715;39.432;-77.518;2023-01-08T17:11:07;15;13;
65012;PMS5003;51715;39.432;-77.518;2023-01-08T17:13:38;14;14;
65012;PMS5003;51715;39.432;-77.518;2023-01-08T17:16:08;12;12;
65012;PMS5003;51715;39.432;-77.518;2023-01-08T17:18:39;11;11;
65012;PMS5003;51715;39.432;-77.518;2023-01-08T17:21:08;13;12;
65012;PMS5003;51715;39.432;-77.518;2023-01-08T17:23:39;14;11;
65012;PMS5003;51715;39.432;-77.518;2023-01-08T17:26:09;13;12;
65012;PMS5003;51715;39.432;-77.518;2023-01-08T17:28:41;13;13;
65012;PMS5003;51715;39.432;-77.518;2023-01-08T17:31:11;10;10;
65012;PMS5003;51715;39.432;-77.518;2023-01-08T17:33:41;11;8;
65012;PMS5003;51715;39.432;-77.518;2023-01-08T17:36:11;13;12;
65012;PMS5003;51715;39.432;-77.518;2023-01-08T17:38:40;13;13;
65012;PMS5003;51715;39.432;-77.518;2023-01-08T17:41:09;15;12;
65012;PMS5003;51715;39.432;-77.518;2023-01-08T17:43:39;12;12;
65012;PMS5003;51715;39.432;-77.518;2023-01-08T17:46:08;8;8;
65012;PMS5003;51715;39.432;-77.518;2023-01-08T17:48:36;15;12;
65012;PMS5003;51715;39.432;-77.518;2023-01-08T17:51:05;11;9;
65012;PMS5003;51715;39.432;-77.518;2023-01-08T17:53:33;8;7;
65012;PMS5003;51715;39.432;-77.518;2023-01-08T17:56:03;12;11;
65012;PMS5003;51715;39.432;-77.518;2023-01-08T17:58:32;11;11;
65012;PMS5003;51715;39.432;-77.518;2023-01-08T18:01:00;9;9;
65012;PMS5003;51715;39.432;-77.518;2023-01-08T18:03:29;11;9;
65012;PMS5003;51715;39.432;-77.518;2023-01-08T18:05:58;10;9;
65012;PMS5003;51715;39.432;-77.518;2023-01-08T18:08:33;14;14;
65012;PMS5003;51715;39.432;-77.518;2023-01-08T18:11:01;15;15;
65012;PMS5003;51715;39.432;-77.518;2023-01-08T18:13:31;13;12;
65012;PMS5003;51715;39.432;-77.518;2023-01-08T18:16:00;14;13;
65012;PMS5003;51715;39.432;-77.518;2023-01-08T18:18:29;9;8;
65012;PMS5003;51715;39.432;-77.518;2023-01-08T18:20:57;13;12;
65012;PMS5003;51715;39.432;-77.518;2023-01-08T18:23:26;14;14;
65012;PMS5003;51715;39.432;-77.518;2023-01-08T18:25:54;14;10;
65012;PMS5003;51715;39.432;-77.518;2023-01-08T18:28:23;10;9;
65012;PMS5003;51715;39.432;-77.518;2023-01-08T18:30:51;8;8;
65012;PMS5003;51715;39.432;-77.518;2023-01-08T18:33:20;9;9;
65012;PMS5003;51715;39.432;-77.518;2023-01-08T18:35:50;13;11;
65012;PMS5003;51715;39.432;-77.518;2023-01-08T18:38:17;13;11;
65012;PMS5003;51715;39.432;-77.518;2023-01-08T18:40:46;14;13;